createdAt,value
2023-04-16T00:00:53.105Z,182.9364
2023-04-16T00:01:53.850Z,192.8695
2023-04-16T00:02:54.657Z,189.2595
2023-04-16T00:03:55.935Z,188.1891
2023-04-16T00:04:56.746Z,195.0394
2023-04-16T00:05:57.358Z,206.3526
2023-04-16T00:06:58.051Z,213.4739
2023-04-16T00:07:58.662Z,202.0581
2023-04-16T00:08:59.323Z,206.6536
2023-04-16T00:10:00.008Z,208.0866
2023-04-16T00:11:00.673Z,227.4168
2023-04-16T00:12:01.332Z,217.8961
2023-04-16T00:13:02.053Z,236.1105
2023-04-16T00:14:02.663Z,220.1749
2023-04-16T00:15:03.332Z,185.1210
2023-04-16T00:16:03.994Z,201.6607
2023-04-16T00:17:04.736Z,221.5443
2023-04-16T00:18:05.459Z,224.4213
2023-04-16T00:19:06.133Z,226.8204
2023-04-16T00:20:06.775Z,224.3894
2023-04-16T00:21:07.441Z,208.1449
2023-04-16T00:22:08.117Z,224.5776
2023-04-16T00:23:08.814Z,218.3662
2023-04-16T00:24:09.451Z,228.4449
2023-04-16T00:25:10.100Z,238.4699
2023-04-16T00:26:10.739Z,217.7985
2023-04-16T00:27:11.722Z,218.2510
2023-04-16T00:28:12.337Z,216.2639
2023-04-16T00:29:13.003Z,216.1215
2023-04-16T00:30:13.623Z,205.3308
2023-04-16T00:31:14.568Z,220.9417
2023-04-16T00:32:15.248Z,222.7016
2023-04-16T00:33:15.900Z,252.2114
2023-04-16T00:34:18.408Z,216.5478
2023-04-16T00:35:19.066Z,225.2514
2023-04-16T00:36:19.943Z,239.8302
2023-04-16T00:37:20.570Z,211.2006
2023-04-16T00:38:21.230Z,234.5998
2023-04-16T00:39:21.999Z,233.3512
2023-04-16T00:40:22.683Z,226.3913
2023-04-16T00:41:23.298Z,223.2187
2023-04-16T00:42:23.994Z,227.6035
2023-04-16T00:43:24.636Z,226.2538
2023-04-16T00:44:25.297Z,230.2614
2023-04-16T00:45:25.956Z,223.1104
2023-04-16T00:46:26.680Z,221.7122
2023-04-16T00:47:27.310Z,225.2139
2023-04-16T00:48:28.017Z,229.7141
2023-04-16T00:49:28.646Z,242.1462
2023-04-16T00:50:29.314Z,233.8956
2023-04-16T00:51:29.997Z,226.1164
2023-04-16T00:52:30.621Z,227.1275
2023-04-16T00:53:31.295Z,224.8146
2023-04-16T00:54:31.959Z,230.2975
2023-04-16T00:55:32.633Z,219.0535
2023-04-16T00:56:33.278Z,244.8999
2023-04-16T00:57:33.981Z,235.2230
2023-04-16T00:58:34.643Z,225.9665
2023-04-16T00:59:35.288Z,233.9993
2023-04-16T01:00:35.933Z,235.6563
2023-04-16T01:01:36.616Z,223.7043
2023-04-16T01:02:37.336Z,225.2243
2023-04-16T01:03:38.179Z,225.9992
2023-04-16T01:04:38.877Z,230.7355
2023-04-16T01:05:39.544Z,230.8360
2023-04-16T01:06:40.260Z,227.9004
2023-04-16T01:07:40.904Z,225.4393
2023-04-16T01:08:41.534Z,215.6867
2023-04-16T01:09:42.208Z,217.5821
2023-04-16T01:10:42.872Z,226.3642
2023-04-16T01:11:43.493Z,246.0624
2023-04-16T01:12:44.130Z,230.8311
2023-04-16T01:13:44.778Z,235.2443
2023-04-16T01:14:45.878Z,242.8082
2023-04-16T01:15:46.530Z,230.8680
2023-04-16T01:16:47.184Z,215.6734
2023-04-16T01:17:47.856Z,223.6523
2023-04-16T01:18:48.483Z,238.0328
2023-04-16T01:19:49.173Z,237.3418
2023-04-16T01:20:49.870Z,244.5929
2023-04-16T01:21:50.550Z,216.6554
2023-04-16T01:22:51.254Z,226.0032
2023-04-16T01:23:51.928Z,228.6985
2023-04-16T01:24:52.666Z,223.0695
2023-04-16T01:25:53.365Z,221.8879
2023-04-16T01:26:54.047Z,231.8058
2023-04-16T01:27:54.728Z,257.1602
2023-04-16T01:28:55.400Z,244.9960
2023-04-16T01:29:56.092Z,265.2360
2023-04-16T01:30:56.799Z,238.0774
2023-04-16T01:31:57.468Z,251.2794
2023-04-16T01:32:58.200Z,240.1891
2023-04-16T01:33:59.118Z,247.5064
2023-04-16T01:34:59.818Z,259.8362
2023-04-16T01:36:00.587Z,270.4637
2023-04-16T01:37:01.419Z,251.9725
2023-04-16T01:38:02.091Z,249.0046
2023-04-16T01:39:02.764Z,245.0879
2023-04-16T01:40:03.453Z,228.8748
2023-04-16T01:41:04.163Z,246.9280
2023-04-16T01:42:04.897Z,253.9804
2023-04-16T01:43:05.603Z,258.4364
2023-04-16T01:44:06.297Z,249.1445
2023-04-16T01:45:06.979Z,252.6642
2023-04-16T01:46:07.682Z,253.5376
2023-04-16T01:47:08.362Z,246.0770
2023-04-16T01:48:09.079Z,228.4300
2023-04-16T01:49:09.949Z,232.3426
2023-04-16T01:50:10.700Z,217.8852
2023-04-16T01:51:11.658Z,237.9720
2023-04-16T01:52:12.331Z,240.5953
2023-04-16T01:53:13.012Z,229.3897
2023-04-16T01:54:13.686Z,223.6911
2023-04-16T01:55:14.404Z,228.9632
2023-04-16T01:56:15.106Z,233.3276
2023-04-16T01:57:15.776Z,240.3540
2023-04-16T01:58:16.439Z,228.9374
2023-04-16T01:59:17.358Z,236.8600
2023-04-16T02:00:18.043Z,245.8583
2023-04-16T02:01:18.809Z,251.8199
2023-04-16T02:02:19.575Z,262.8406
2023-04-16T02:03:20.419Z,249.0727
2023-04-16T02:04:21.144Z,248.0809
2023-04-16T06:48:58.668Z,235.2689
2023-04-16T06:49:52.696Z,231.3343
2023-04-16T06:50:53.493Z,231.8924
2023-04-16T06:51:54.167Z,226.5961
2023-04-16T06:52:54.856Z,217.2007
2023-04-16T06:53:55.659Z,218.1639
2023-04-16T06:54:56.407Z,215.7808
2023-04-16T06:55:57.227Z,223.1781
2023-04-16T06:56:58.150Z,228.2949
2023-04-16T06:57:58.771Z,233.7699
2023-04-16T06:58:59.452Z,224.2928
2023-04-16T07:00:00.243Z,238.1377
2023-04-16T07:01:00.995Z,246.5302
2023-04-16T07:02:01.873Z,239.3538
2023-04-16T07:03:03.130Z,237.8822
2023-04-16T07:04:04.041Z,238.5894
2023-04-16T07:05:04.852Z,212.4731
2023-04-16T07:06:05.532Z,222.0600
2023-04-16T07:07:06.238Z,224.9717
2023-04-16T07:08:06.951Z,227.6631
2023-04-16T07:09:07.788Z,191.0268
2023-04-16T07:10:08.555Z,183.9711
2023-04-16T07:11:09.262Z,197.3251
2023-04-16T07:12:09.933Z,207.5645
2023-04-16T07:13:10.864Z,204.8815
2023-04-16T07:14:11.746Z,186.1952
2023-04-16T07:15:12.418Z,173.4848
2023-04-16T07:16:13.469Z,188.7436
2023-04-16T07:17:14.145Z,213.2573
2023-04-16T07:18:14.848Z,212.5390
2023-04-16T07:19:15.547Z,217.0003
2023-04-16T07:20:16.262Z,219.8823
2023-04-16T07:21:17.478Z,190.2379
2023-04-16T07:22:18.114Z,189.7652
2023-04-16T07:23:18.820Z,222.9284
2023-04-16T07:24:19.570Z,241.9230
2023-04-16T07:25:20.252Z,227.2147
2023-04-16T07:26:20.929Z,196.5464
2023-04-16T07:27:21.751Z,203.3560
2023-04-16T07:28:22.410Z,208.4279
2023-04-16T07:29:23.290Z,199.1808
2023-04-16T07:30:24.098Z,209.2376
2023-04-16T07:31:24.835Z,210.7469
2023-04-16T07:32:25.626Z,176.9426
2023-04-16T07:33:26.559Z,180.0663
2023-04-16T07:34:27.293Z,185.0614
2023-04-16T07:35:27.982Z,193.8790
2023-04-16T07:36:28.646Z,203.8827
2023-04-16T07:37:29.369Z,211.0032
2023-04-16T07:38:30.026Z,210.8110
2023-04-16T07:39:30.717Z,179.8837
2023-04-16T07:40:31.427Z,170.8405
2023-04-16T07:41:32.367Z,199.3654
2023-04-16T07:42:33.035Z,189.1231
2023-04-16T07:47:58.135Z,198.2264
2023-04-16T07:48:51.853Z,185.6356
2023-04-16T07:49:52.769Z,206.9954
2023-04-16T07:50:53.455Z,211.1347
2023-04-16T07:51:54.381Z,181.7888
2023-04-16T07:52:55.242Z,200.7050
2023-04-16T07:53:56.000Z,205.2373
2023-04-16T07:54:56.859Z,208.9202
2023-04-16T07:55:57.732Z,208.2416
2023-04-16T07:56:58.478Z,215.4033
2023-04-16T07:57:59.689Z,207.4536
2023-04-16T07:59:07.833Z,189.6475
2023-04-16T08:00:03.738Z,178.1019
2023-04-16T08:01:04.420Z,200.6239
2023-04-16T08:02:05.186Z,179.2893
2023-04-16T08:03:06.011Z,163.0594
2023-04-16T08:04:07.087Z,187.2796
2023-04-16T08:05:07.865Z,169.6499
2023-04-16T08:06:08.568Z,192.1623
2023-04-16T08:07:09.241Z,192.7002
2023-04-16T08:08:11.457Z,182.3430
2023-04-16T08:09:12.294Z,190.9257
2023-04-16T08:10:13.043Z,185.8121
2023-04-16T08:11:13.848Z,183.5896
2023-04-16T08:12:14.546Z,194.4946
2023-04-16T08:18:09.950Z,252.4652
2023-04-16T08:19:10.970Z,190.8143
2023-04-16T08:20:15.060Z,191.8965
2023-04-16T08:21:15.328Z,191.6008
2023-04-16T08:22:16.305Z,188.3248
2023-04-16T08:23:17.208Z,193.4512
2023-04-16T08:24:17.918Z,188.1433
2023-04-16T08:25:18.605Z,199.2844
2023-04-16T08:26:19.561Z,107.9070
2023-04-16T08:27:20.502Z,185.1068
2023-04-16T08:28:21.230Z,183.5731
2023-04-16T08:29:22.388Z,171.1767
2023-04-16T08:30:23.064Z,181.8990
2023-04-16T08:31:23.836Z,167.0929
2023-04-16T08:32:24.637Z,182.5663
2023-04-16T08:33:25.636Z,185.9145
2023-04-16T08:34:26.368Z,192.6140
2023-04-16T08:35:27.112Z,201.1624
2023-04-16T08:36:27.853Z,177.7122
2023-04-16T08:37:28.542Z,184.8488
2023-04-16T08:38:29.505Z,197.5552
2023-04-16T08:39:30.183Z,196.3550
2023-04-16T08:40:30.950Z,210.0006
2023-04-16T08:41:31.648Z,189.1277
2023-04-16T08:42:32.394Z,173.3511
2023-04-16T08:43:33.093Z,190.2946
2023-04-16T08:44:33.808Z,178.3350
2023-04-16T08:45:34.565Z,186.8903
2023-04-16T08:46:35.311Z,172.4634
2023-04-16T08:47:36.019Z,172.4983
2023-04-16T08:48:36.727Z,193.9678
2023-04-16T08:49:37.434Z,148.0479
2023-04-16T08:50:38.406Z,189.5605
2023-04-16T08:51:39.225Z,188.2280
2023-04-16T08:52:39.912Z,196.7810
2023-04-16T08:53:40.738Z,191.0609
2023-04-16T08:54:41.496Z,184.5731
2023-04-16T08:55:42.289Z,188.4319
2023-04-16T11:00:38.375Z,203.1304
2023-04-16T11:26:09.643Z,242.0004
2023-04-16T11:41:49.429Z,192.0004
2023-04-16T11:42:20.271Z,253.0004
2023-04-16T11:43:21.076Z,286.7271
2023-04-16T11:44:21.949Z,286.3278
2023-04-16T11:45:22.931Z,245.5412
2023-04-16T11:46:27.841Z,235.8391
2023-04-16T11:47:25.994Z,234.5163
2023-04-16T11:48:26.917Z,248.8170
2023-04-16T11:49:27.715Z,273.1598
2023-04-16T11:50:28.533Z,265.1466
2023-04-16T11:51:29.368Z,261.2008
2023-04-16T11:52:30.239Z,257.8409
2023-04-16T11:53:31.052Z,254.1439
2023-04-16T11:54:31.819Z,250.8519
2023-04-16T11:55:32.623Z,258.1690
2023-04-16T11:56:33.469Z,173.4911
2023-04-16T11:57:35.782Z,265.0871
2023-04-16T11:58:36.821Z,249.2771
2023-04-16T11:59:36.751Z,294.5338
2023-04-16T12:00:38.351Z,301.4171
2023-04-16T12:01:40.777Z,321.8397
2023-04-16T12:02:43.403Z,244.0796
2023-04-16T12:03:46.066Z,253.9645
2023-04-16T12:42:25.168Z,259.5004
2023-04-16T13:08:26.719Z,249.0004
2023-04-16T13:08:57.038Z,257.0004
2023-04-16T13:09:57.797Z,257.4398
2023-04-16T13:10:58.601Z,261.0465
2023-04-16T13:11:59.401Z,283.5446
2023-04-16T13:13:00.258Z,294.5652
2023-04-16T13:14:01.086Z,285.0270
2023-04-16T13:15:02.193Z,308.3895
2023-04-16T13:16:02.973Z,284.6972
2023-04-16T13:17:03.769Z,282.4021
2023-04-16T13:18:04.642Z,281.2363
2023-04-16T13:19:05.440Z,278.9423
2023-04-16T13:20:06.205Z,278.1184
2023-04-16T13:21:07.003Z,283.1776
2023-04-16T13:22:08.589Z,273.3677
2023-04-16T13:23:09.367Z,259.2357
2023-04-16T13:24:10.123Z,257.9424
2023-04-16T13:25:10.873Z,277.1857
2023-04-16T13:26:11.597Z,268.8136
2023-04-16T13:27:12.364Z,259.5919
2023-04-16T13:28:13.106Z,239.9412
2023-04-16T13:29:13.853Z,283.6617
2023-04-16T13:30:14.587Z,244.6533
2023-04-16T13:31:15.388Z,250.4040
2023-04-16T13:32:16.113Z,260.6530
2023-04-16T13:33:16.978Z,275.2483
2023-04-16T13:34:17.719Z,286.4618
2023-04-16T13:35:18.445Z,304.8836
2023-04-16T13:36:19.220Z,303.5888
2023-04-16T13:37:19.951Z,301.3650
2023-04-16T13:38:20.719Z,281.5941
2023-04-16T13:39:21.617Z,273.2995
2023-04-16T13:40:22.295Z,266.2504
2023-04-16T13:41:23.066Z,267.9504
2023-04-16T13:42:24.142Z,262.7960
2023-04-16T13:43:24.909Z,308.0632
2023-04-16T13:44:25.656Z,275.9653
2023-04-16T13:45:26.414Z,303.0764
2023-04-16T13:46:27.147Z,346.0056
2023-04-16T13:47:27.889Z,293.1624
2023-04-16T13:48:28.688Z,314.0620
2023-04-16T13:49:29.743Z,260.7653
2023-04-16T13:50:30.555Z,255.7812
2023-04-16T13:51:32.132Z,252.8875
2023-04-16T13:52:32.929Z,258.9429
2023-04-16T13:53:33.745Z,279.9373
2023-04-16T13:54:34.737Z,264.7886
2023-04-16T13:55:35.605Z,265.8472
2023-04-16T13:56:36.405Z,269.0398
2023-04-16T13:57:37.198Z,252.5998
2023-04-16T13:58:38.570Z,255.8216
2023-04-16T13:59:40.573Z,245.5123
2023-04-16T14:00:41.413Z,250.8782
2023-04-16T14:01:42.218Z,267.7703
2023-04-16T14:02:43.176Z,253.9677
2023-04-16T14:03:44.364Z,277.6431
2023-04-16T14:04:45.555Z,278.2926
2023-04-16T14:05:47.133Z,251.8552
2023-04-16T14:06:48.508Z,264.0426
2023-04-16T14:07:49.567Z,247.3534
2023-04-16T14:08:50.383Z,248.1464
2023-04-16T14:09:51.156Z,276.4449
2023-04-16T14:10:52.638Z,277.1825
2023-04-16T14:11:54.656Z,270.6539
2023-04-16T14:12:55.391Z,283.9984
2023-04-16T14:13:56.234Z,271.6752
2023-04-16T14:14:57.009Z,298.7752
2023-04-16T14:15:57.869Z,294.2885
2023-04-16T14:16:59.669Z,290.4316
2023-04-16T14:18:00.660Z,273.0515
2023-04-16T14:19:01.571Z,274.4398
2023-04-16T14:20:03.025Z,281.4150
2023-04-16T14:21:03.736Z,294.5816
2023-04-16T14:22:04.576Z,282.7856
2023-04-16T14:23:05.305Z,297.3726
2023-04-16T14:24:06.063Z,266.8652
2023-04-16T14:25:06.815Z,258.4608
2023-04-16T14:26:07.641Z,285.1885
2023-04-16T14:27:08.507Z,285.6665
2023-04-16T14:28:09.298Z,294.6592
2023-04-16T14:29:10.741Z,290.4059
2023-04-16T14:30:11.638Z,263.2381
2023-04-16T14:31:12.520Z,275.7753
2023-04-16T14:32:13.775Z,268.8229
2023-04-16T14:33:14.540Z,265.3986
2023-04-16T14:34:15.553Z,258.9669
2023-04-16T14:35:16.300Z,282.5624
2023-04-16T14:36:17.233Z,266.4795
2023-04-16T14:37:17.983Z,273.8661
2023-04-16T14:38:18.850Z,281.3387
2023-04-16T14:39:19.647Z,266.0661
2023-04-16T14:40:20.615Z,286.8831
2023-04-16T14:41:21.466Z,306.4451
2023-04-16T14:42:22.257Z,284.1578
2023-04-16T14:43:23.554Z,288.2012
2023-04-16T14:44:25.087Z,291.4991
2023-04-16T14:45:25.886Z,268.6633
2023-04-16T14:46:26.655Z,290.3754
2023-04-16T14:47:27.413Z,325.8824
2023-04-16T14:48:28.235Z,274.7460
2023-04-16T14:49:29.079Z,26.7752
2023-04-16T14:50:30.117Z,342.8903
2023-04-16T14:51:30.919Z,272.4697
2023-04-16T14:52:31.774Z,273.9333
2023-04-16T14:53:32.694Z,279.7625
2023-04-16T14:54:33.544Z,287.7703
2023-04-16T14:55:34.383Z,257.5757
2023-04-16T14:56:35.405Z,280.7544
2023-04-16T14:57:36.239Z,285.4425
2023-04-16T14:58:38.647Z,272.1232
2023-04-16T14:59:40.689Z,251.5757
2023-04-16T15:00:41.561Z,265.1020
2023-04-16T15:01:42.397Z,258.3197
2023-04-16T15:02:43.371Z,257.0075
2023-04-16T15:03:45.732Z,269.0566
2023-04-16T15:04:47.842Z,309.9685
2023-04-16T15:05:49.702Z,261.3007
2023-04-16T15:06:55.515Z,250.8129
